Overview Statistics Trail Chart Weather Telemetry Raw packets
 

This is the latest recevied weather packets stored in our database for station/object VA6BAX-13. If no packets are shown the sender has not sent any weather packets the latest 10 day(s).

<< 6 7 8 9 10 >>
Time Temp. Humidity Pressure Rain* Wind** Luminosity Snow
1788335838 16.11° C 70% 1003.7 hPa - - - -
1788335809 15.56° C 70% 1003.8 hPa - - - -
1788335238 15.56° C 72% 1003.7 hPa - - - -
1788335210 15.56° C 72% 1003.7 hPa - - - -
1788334638 15° C 74% 1003.7 hPa - - - -
1788334609 15° C 75% 1003.6 hPa - - - -
1788334009 14.44° C 77% 1003.6 hPa - - - -
1788333410 15° C 75% 1003.7 hPa - - - -
1788332837 15° C 76% 1003.6 hPa - - - -
1788332810 15° C 76% 1003.7 hPa - - - -
1788332209 15° C 75% 1003.6 hPa - - - -
1788331609 15° C 77% 1003.6 hPa - - - -
1788331009 15° C 76% 1003.5 hPa - - - -
1788330437 15° C 77% 1003.4 hPa - - - -
1788330410 15° C 77% 1003.5 hPa - - - -
1788329837 15° C 76% 1003.5 hPa - - - -
1788329809 15° C 76% 1003.5 hPa - - - -
1788329210 15.56° C 74% 1003.5 hPa - - - -
1788328608 16.11° C 73% 1003.5 hPa - - - -
1788328037 15.56° C 74% 1003.4 hPa - - - -
1788328008 15.56° C 74% 1003.4 hPa - - - -
1788327409 15.56° C 74% 1003.4 hPa - - - -
1788327145 16.67° C 68% 1003.5 hPa - - - -
1788327043 16.67° C 68% 1003.5 hPa - - - -
1788326882 16.67° C 68% 1003.5 hPa - - - -

* Rain since midnight (hover to see other rain measurements)
** Current wind speed in m/s (hover to see current wind gust speed)